Portada
METAR-TAF:

METAR-TAF

Aeropuertos :

Stuttgart Municipal Airport

Stuttgart, Arkansas, Estados Unidos

latitud: 34-36N, longitud: 091-34W, altitud: 68 m

Observación

El informe se hizo hace 25 minutos, a las 17:56 UTC
Viento 3 kt del oeste
Temperatura 10°C
Humedad 82%
Presión 1018 hPa
Visibilidad: 16.1 km
Escasas nubes a una altura de 800 ft

METAR: KSGT 271756Z AUTO 28003KT 10SM FEW008 10/07 A3006 RMK AO2 SLP180 T01000072 10100 20072 58007

Hora: 12:21 (18:21 UTC)


TAF: falta

Observaciones y pronósticos meteorológicos de más de 4000 aeropuertos (mensajes METAR y TAF).

Los puntos amarillos y rojos representan las estaciones disponibles.

Ponga el ratón en el punto deseado para ver el nombre de la estación.

Haga clic para ver las observaciones y los pronósticos meteorológicos.

Para cambiar el mapa : haga clic en los botones verdes con una cruz de color negro para hacer un zoom, en el botón verde con un guión para alejar o en las flechas verdes para mapas adyacentes.


METAR-TAF: